createdAt,value
2019-02-21T00:00:53.185Z,0.44
2019-02-21T00:03:19.116Z,0.51
2019-02-21T00:05:45.068Z,0.46
2019-02-21T00:08:10.893Z,0.47
2019-02-21T00:10:36.715Z,0.44
2019-02-21T00:13:02.750Z,0.45
2019-02-21T00:15:28.796Z,0.46
2019-02-21T00:17:54.613Z,0.66
2019-02-21T00:20:20.552Z,0.44
2019-02-21T00:22:46.385Z,0.43
2019-02-21T00:25:12.326Z,0.32
2019-02-21T00:27:38.161Z,0.22
2019-02-21T00:30:45.653Z,0.12
2019-02-21T00:33:11.494Z,0.11
2019-02-21T00:35:37.322Z,0.10
2019-02-21T00:38:03.272Z,0.19
2019-02-21T00:40:29.107Z,0.19
2019-02-21T00:42:55.028Z,0.16
2019-02-21T00:45:20.962Z,0.09
2019-02-21T00:47:46.802Z,-0.01
2019-02-21T00:50:12.632Z,0.01
2019-02-21T00:52:38.475Z,0.01
2019-02-21T00:55:46.285Z,0.07
2019-02-21T01:01:06.122Z,0.10
2019-02-21T01:03:31.968Z,0.16
2019-02-21T01:05:57.770Z,0.19
2019-02-21T01:08:23.596Z,0.27
2019-02-21T01:10:49.510Z,0.31
2019-02-21T01:13:15.443Z,0.27
2019-02-21T01:15:41.454Z,0.14
2019-02-21T01:18:07.277Z,-0.12
2019-02-21T01:20:53.278Z,-0.23
2019-02-21T01:23:19.111Z,-0.19
2019-02-21T01:25:45.004Z,-0.23
2019-02-21T01:28:10.855Z,-0.20
2019-02-21T01:30:36.775Z,-0.13
2019-02-21T01:33:02.581Z,-0.08
2019-02-21T01:35:28.406Z,-0.04
2019-02-21T01:37:54.218Z,-0.06
2019-02-21T01:40:20.127Z,-0.05
2019-02-21T01:42:45.945Z,-0.10
2019-02-21T01:45:11.972Z,-0.10
2019-02-21T01:47:37.905Z,-0.13
2019-02-21T01:50:45.365Z,-0.27
2019-02-21T01:53:11.309Z,-0.28
2019-02-21T01:55:37.121Z,-0.20
2019-02-21T01:58:02.953Z,-0.21
2019-02-21T02:00:28.767Z,-0.23
2019-02-21T02:02:54.589Z,-0.13
2019-02-21T02:05:20.600Z,-0.19
2019-02-21T02:07:46.449Z,-0.26
2019-02-21T02:10:12.341Z,-0.27
2019-02-21T02:12:38.313Z,-0.26
2019-02-21T02:15:45.853Z,-0.23
2019-02-21T02:18:11.798Z,-0.25
2019-02-21T02:20:37.659Z,-0.28
2019-02-21T02:23:03.491Z,-0.31
2019-02-21T02:25:29.315Z,-0.26
2019-02-21T02:27:55.245Z,-0.34
2019-02-21T02:30:21.089Z,-0.30
2019-02-21T02:32:46.890Z,-0.38
2019-02-21T02:35:12.724Z,-0.38
2019-02-21T02:37:38.548Z,-0.30
2019-02-21T02:40:46.030Z,-0.43
2019-02-21T02:43:11.960Z,-0.41
2019-02-21T02:45:37.801Z,-0.45
2019-02-21T02:48:03.611Z,-0.48
2019-02-21T02:50:29.465Z,-0.46
2019-02-21T02:52:55.285Z,-0.54
2019-02-21T02:55:21.137Z,-0.47
2019-02-21T02:57:46.939Z,-0.46
2019-02-21T03:00:54.442Z,-0.46
2019-02-21T03:03:20.389Z,-0.46
2019-02-21T03:05:46.301Z,-0.56
2019-02-21T03:08:12.122Z,-0.50
2019-02-21T03:10:37.973Z,-0.54
2019-02-21T03:13:03.799Z,-0.51
2019-02-21T03:15:29.666Z,-0.56
2019-02-21T03:17:55.480Z,-0.56
2019-02-21T03:20:21.321Z,-0.55
2019-02-21T03:22:47.143Z,-0.66
2019-02-21T03:25:26.747Z,-0.71
2019-02-21T03:27:52.670Z,-0.68
2019-02-21T03:30:18.502Z,-0.75
2019-02-21T03:32:44.408Z,-0.78
2019-02-21T03:35:10.362Z,-0.69
2019-02-21T03:37:36.197Z,-0.49
2019-02-21T03:40:43.671Z,-0.51
2019-02-21T03:43:09.586Z,-0.47
2019-02-21T03:45:35.399Z,-0.61
2019-02-21T03:48:01.222Z,-0.54
2019-02-21T03:50:27.019Z,-0.68
2019-02-21T03:52:52.964Z,-0.72
2019-02-21T03:55:18.770Z,-0.82
2019-02-21T03:57:44.594Z,-0.80
2019-02-21T04:00:52.077Z,-0.70
2019-02-21T04:03:18.117Z,-0.61
2019-02-21T04:05:44.038Z,-0.56
2019-02-21T04:08:09.990Z,-0.70
2019-02-21T04:10:35.898Z,-0.67
2019-02-21T04:13:01.829Z,-0.62
2019-02-21T04:15:27.672Z,-0.53
2019-02-21T04:17:53.599Z,-0.61
2019-02-21T04:20:19.439Z,-0.51
2019-02-21T04:22:45.368Z,-0.58
2019-02-21T04:25:11.235Z,-0.67
2019-02-21T04:27:37.067Z,-0.75
2019-02-21T04:30:44.543Z,-0.80
2019-02-21T04:33:10.473Z,-0.82
2019-02-21T04:35:36.327Z,-0.77
2019-02-21T04:38:02.175Z,-0.81
2019-02-21T04:40:28.084Z,-0.84
2019-02-21T04:42:53.892Z,-0.78
2019-02-21T04:45:19.729Z,-0.92
2019-02-21T04:47:45.547Z,-0.88
2019-02-21T04:50:11.388Z,-0.86
2019-02-21T04:52:37.234Z,-0.75
2019-02-21T04:55:44.702Z,-0.78
2019-02-21T04:58:10.552Z,-0.76
2019-02-21T05:00:36.367Z,-0.71
2019-02-21T05:03:02.202Z,-0.76
2019-02-21T05:05:28.107Z,-0.74
2019-02-21T05:07:53.953Z,-0.67
2019-02-21T05:10:19.766Z,-0.75
2019-02-21T05:13:27.248Z,-0.82
2019-02-21T05:15:53.187Z,-0.85
2019-02-21T05:18:19.008Z,-0.80
2019-02-21T05:20:44.832Z,-0.78
2019-02-21T05:23:10.663Z,-0.71
2019-02-21T05:25:36.600Z,-0.68
2019-02-21T05:28:22.312Z,-0.71
2019-02-21T05:33:55.557Z,-0.77
2019-02-21T05:42:06.158Z,-0.84
2019-02-21T05:44:51.867Z,-0.74
2019-02-21T05:47:37.577Z,-0.69
2019-02-21T05:50:45.061Z,-0.75
2019-02-21T05:53:30.882Z,-0.72
2019-02-21T05:56:16.712Z,-0.65
2019-02-21T05:59:02.486Z,-0.57
2019-02-21T06:04:22.091Z,-0.77
2019-02-21T06:07:09.852Z,-0.96
2019-02-21T06:12:42.959Z,-0.86
2019-02-21T06:15:28.656Z,-0.78
2019-02-21T06:18:14.460Z,-0.75
2019-02-21T06:21:00.266Z,-0.68
2019-02-21T06:23:45.955Z,-0.65
2019-02-21T06:26:31.792Z,-0.69
2019-02-21T06:29:17.481Z,-0.69
2019-02-21T06:31:43.435Z,-0.66
2019-02-21T06:34:09.237Z,-0.60
2019-02-21T06:36:35.185Z,-0.67
2019-02-21T06:39:00.987Z,-0.91
2019-02-21T06:41:29.208Z,-0.95
2019-02-21T06:43:56.868Z,-0.96
2019-02-21T06:48:54.907Z,-0.55
2019-02-21T06:51:20.819Z,-0.57
2019-02-21T06:53:46.638Z,-0.67
2019-02-21T06:56:12.459Z,-0.77
2019-02-21T06:58:38.292Z,-0.69
2019-02-21T07:01:04.106Z,-0.65
2019-02-21T07:03:29.944Z,-0.55
2019-02-21T07:05:55.765Z,-0.41
2019-02-21T07:08:21.597Z,-0.35
2019-02-21T07:10:47.438Z,-0.24
2019-02-21T07:13:13.375Z,-0.18
2019-02-21T07:15:39.207Z,-0.15
2019-02-21T07:18:05.020Z,-0.14
2019-02-21T07:20:30.958Z,-0.09
2019-02-21T07:22:56.978Z,-0.05
2019-02-21T07:25:42.785Z,-0.05
2019-02-21T07:28:12.560Z,0.02
2019-02-21T07:30:36.848Z,0.17
2019-02-21T07:33:02.789Z,0.15
2019-02-21T07:36:11.121Z,0.20
2019-02-21T07:38:37.087Z,0.15
2019-02-21T07:41:03.091Z,0.19
2019-02-21T07:43:29.058Z,0.24
2019-02-21T07:45:55.003Z,0.33
2019-02-21T07:48:20.916Z,0.30
2019-02-21T07:50:46.771Z,0.33
2019-02-21T07:53:12.630Z,0.39
2019-02-21T07:55:38.450Z,0.65
2019-02-21T07:58:04.410Z,0.58
2019-02-21T08:00:30.325Z,0.50
2019-02-21T08:02:56.169Z,0.48
2019-02-21T08:05:23.674Z,0.51
2019-02-21T08:07:49.983Z,0.51
2019-02-21T08:10:15.935Z,0.58
2019-02-21T08:12:41.770Z,0.62
2019-02-21T08:15:49.273Z,0.66
2019-02-21T08:18:15.279Z,0.81
2019-02-21T08:20:41.411Z,1.14
2019-02-21T08:23:07.260Z,1.15
2019-02-21T08:25:33.100Z,1.27
2019-02-21T08:27:58.919Z,1.30
2019-02-21T08:30:24.828Z,1.45
2019-02-21T08:33:10.560Z,1.58
2019-02-21T08:35:36.414Z,1.79
2019-02-21T08:38:02.333Z,2.06
2019-02-21T08:40:28.250Z,2.15
2019-02-21T08:42:54.095Z,2.10
2019-02-21T08:45:20.107Z,2.06
2019-02-21T08:47:46.026Z,2.24
2019-02-21T08:50:11.885Z,2.36
2019-02-21T08:52:37.752Z,2.29
2019-02-21T08:55:45.508Z,2.38
2019-02-21T08:58:11.468Z,2.32
2019-02-21T09:00:37.395Z,2.42
2019-02-21T09:03:03.326Z,2.58
2019-02-21T09:05:29.274Z,2.70
2019-02-21T09:07:55.189Z,2.67
2019-02-21T09:10:21.213Z,2.79
2019-02-21T09:12:48.502Z,2.88
2019-02-21T09:15:56.423Z,2.72
2019-02-21T09:18:22.404Z,2.77
2019-02-21T09:20:48.374Z,2.88
2019-02-21T09:23:15.844Z,3.01
2019-02-21T09:25:42.220Z,2.92
2019-02-21T09:28:08.049Z,3.00
2019-02-21T09:30:33.986Z,3.01
2019-02-21T09:32:59.795Z,3.09
2019-02-21T09:35:25.655Z,3.05
2019-02-21T09:37:51.548Z,3.22
2019-02-21T09:40:17.464Z,3.36
2019-02-21T09:42:43.399Z,3.53
2019-02-21T09:45:29.258Z,3.73
2019-02-21T09:47:55.076Z,3.82
2019-02-21T09:50:20.962Z,3.97
2019-02-21T09:52:46.828Z,4.06
2019-02-21T09:55:54.657Z,4.41
2019-02-21T09:58:20.482Z,4.40
2019-02-21T10:00:46.295Z,4.56
2019-02-21T10:03:12.141Z,4.54
2019-02-21T10:05:37.992Z,4.52
2019-02-21T10:08:03.837Z,4.57
2019-02-21T10:10:30.043Z,4.69
2019-02-21T10:12:55.910Z,4.78
2019-02-21T10:15:21.949Z,4.81
2019-02-21T10:17:47.900Z,4.85
2019-02-21T10:20:55.378Z,4.85
2019-02-21T10:23:21.221Z,4.96
2019-02-21T10:25:47.187Z,5.07
2019-02-21T10:28:13.056Z,5.15
2019-02-21T10:30:38.964Z,5.32
2019-02-21T10:33:04.800Z,5.49
2019-02-21T10:35:30.625Z,5.59
2019-02-21T10:37:56.464Z,5.90
2019-02-21T10:40:22.284Z,6.13
2019-02-21T10:42:48.146Z,6.09
2019-02-21T10:45:55.645Z,6.11
2019-02-21T10:48:21.534Z,6.38
2019-02-21T10:50:47.315Z,6.26
2019-02-21T10:53:13.243Z,6.32
2019-02-21T10:55:39.201Z,6.45
2019-02-21T10:58:05.172Z,6.65
2019-02-21T11:00:31.029Z,6.85
2019-02-21T11:02:56.950Z,7.00
2019-02-21T11:05:22.870Z,7.22
2019-02-21T11:07:48.912Z,7.69
2019-02-21T11:10:34.782Z,8.22
2019-02-21T11:13:00.738Z,8.53
2019-02-21T11:15:26.578Z,8.76
2019-02-21T11:18:04.627Z,9.03
2019-02-21T11:20:40.673Z,9.23
2019-02-21T11:23:06.770Z,9.33
2019-02-21T11:25:34.505Z,9.33
2019-02-21T11:28:20.330Z,9.65
2019-02-21T11:30:46.190Z,9.65
2019-02-21T11:33:12.069Z,9.81
2019-02-21T11:35:37.881Z,9.81
2019-02-21T11:38:03.821Z,9.67
2019-02-21T11:40:29.752Z,9.52
2019-02-21T11:42:55.646Z,9.35
2019-02-21T11:45:21.502Z,9.48
2019-02-21T11:47:47.405Z,9.44
2019-02-21T11:50:54.882Z,9.39
2019-02-21T11:53:40.592Z,9.30
2019-02-21T11:56:48.102Z,9.30
2019-02-21T11:59:16.025Z,9.35
2019-02-21T12:01:42.030Z,9.42
2019-02-21T12:04:07.998Z,9.52
2019-02-21T12:06:33.845Z,9.52
2019-02-21T12:08:59.731Z,9.52
2019-02-21T12:11:25.637Z,9.37
2019-02-21T12:13:51.664Z,9.37
2019-02-21T12:16:17.538Z,9.50
2019-02-21T12:18:43.569Z,9.60
2019-02-21T12:21:09.451Z,9.74
2019-02-21T12:23:35.314Z,9.52
2019-02-21T12:26:01.394Z,9.54
2019-02-21T12:28:27.277Z,9.64
2019-02-21T12:30:53.175Z,9.92
2019-02-21T12:33:19.220Z,10.02
2019-02-21T12:35:45.068Z,10.21
2019-02-21T12:38:10.987Z,10.21
2019-02-21T12:40:36.819Z,10.08
2019-02-21T12:43:02.793Z,9.82
2019-02-21T12:45:30.119Z,9.78
2019-02-21T12:47:56.524Z,9.70
2019-02-21T12:50:22.449Z,9.61
2019-02-21T12:52:48.438Z,9.26
2019-02-21T12:55:26.577Z,8.32
2019-02-21T12:57:42.396Z,9.14
2019-02-21T13:00:28.095Z,9.20
2019-02-21T13:02:53.937Z,9.31
2019-02-21T13:05:19.957Z,9.31
2019-02-21T13:07:45.904Z,9.33
2019-02-21T13:10:31.657Z,9.23
2019-02-21T13:12:57.628Z,9.24
2019-02-21T13:15:23.504Z,8.91
2019-02-21T13:17:51.119Z,9.17
2019-02-21T13:20:17.487Z,9.11
2019-02-21T13:23:03.262Z,9.03
2019-02-21T13:25:29.203Z,9.03
2019-02-21T13:27:55.121Z,9.13
2019-02-21T13:30:20.975Z,9.22
2019-02-21T13:32:46.929Z,9.39
2019-02-21T13:35:13.011Z,9.47
2019-02-21T13:37:39.069Z,9.63
2019-02-21T13:40:49.430Z,9.63
2019-02-21T13:43:34.362Z,9.54
2019-02-21T13:48:54.257Z,9.75
2019-02-21T13:51:20.222Z,10.87
2019-02-21T13:53:46.190Z,10.46
2019-02-21T13:56:12.114Z,9.93
2019-02-21T13:58:38.105Z,9.64
2019-02-21T14:01:03.971Z,9.95
2019-02-21T14:03:30.184Z,9.88
2019-02-21T14:06:16.002Z,9.63
2019-02-21T14:08:41.843Z,9.63
2019-02-21T14:11:07.776Z,9.71
2019-02-21T14:13:33.814Z,9.40
2019-02-21T14:15:59.679Z,9.47
2019-02-21T14:18:25.852Z,9.56
2019-02-21T14:20:51.840Z,9.41
2019-02-21T14:23:17.693Z,9.41
2019-02-21T14:25:43.655Z,9.67
2019-02-21T14:28:09.511Z,9.68
2019-02-21T14:30:35.362Z,9.66
2019-02-21T14:33:08.208Z,9.76
2019-02-21T14:35:34.097Z,9.58
2019-02-21T14:38:00.126Z,9.43
2019-02-21T14:40:26.158Z,9.42
2019-02-21T14:46:05.695Z,9.39
2019-02-21T14:48:51.527Z,10.17
2019-02-21T14:51:17.760Z,9.83
2019-02-21T14:54:03.603Z,9.38
2019-02-21T14:56:29.552Z,9.38
2019-02-21T14:58:55.526Z,9.31
2019-02-21T15:01:21.423Z,9.53
2019-02-21T15:03:47.500Z,9.58
2019-02-21T15:06:13.414Z,9.22
2019-02-21T15:08:39.338Z,9.65
2019-02-21T15:11:05.182Z,9.60
2019-02-21T15:13:31.126Z,9.46
2019-02-21T15:15:57.108Z,9.46
2019-02-21T15:18:23.244Z,9.52
2019-02-21T15:21:08.970Z,9.40
2019-02-21T15:23:36.945Z,9.40
2019-02-21T15:26:02.907Z,9.34
2019-02-21T15:28:28.798Z,9.24
2019-02-21T15:30:54.740Z,9.30
2019-02-21T15:33:20.606Z,9.24
2019-02-21T15:35:46.509Z,9.18
2019-02-21T15:38:19.822Z,9.24
2019-02-21T15:41:00.023Z,9.16
2019-02-21T15:43:25.910Z,9.16
2019-02-21T15:45:51.774Z,9.09
2019-02-21T15:48:17.684Z,9.01
2019-02-21T15:50:43.587Z,9.11
2019-02-21T15:53:09.511Z,8.91
2019-02-21T15:55:35.547Z,8.97
2019-02-21T15:58:21.354Z,9.01
2019-02-21T16:00:47.212Z,9.01
2019-02-21T16:03:13.083Z,9.06
2019-02-21T16:05:38.932Z,9.05
2019-02-21T16:08:04.785Z,9.06
2019-02-21T16:10:30.603Z,9.00
2019-02-21T16:12:56.928Z,9.00
2019-02-21T16:15:24.203Z,8.99
2019-02-21T16:17:50.031Z,8.95
2019-02-21T16:20:57.533Z,8.92
2019-02-21T16:23:23.404Z,8.91
2019-02-21T16:25:49.266Z,8.85
2019-02-21T16:28:15.106Z,8.65
2019-02-21T16:30:41.248Z,8.69
2019-02-21T16:33:07.189Z,8.66
2019-02-21T16:35:33.170Z,8.64
2019-02-21T16:37:59.082Z,8.62
2019-02-21T16:40:24.962Z,8.57
2019-02-21T16:42:50.905Z,8.55
2019-02-21T16:46:07.461Z,8.51
2019-02-21T16:48:26.195Z,8.47
2019-02-21T16:50:52.066Z,8.40
2019-02-21T16:53:17.927Z,8.40
2019-02-21T16:55:43.782Z,8.33
2019-02-21T16:58:09.732Z,8.28
2019-02-21T17:00:50.190Z,8.29
2019-02-21T17:03:03.424Z,8.25
2019-02-21T17:05:29.293Z,8.24
2019-02-21T17:07:55.147Z,8.26
2019-02-21T17:10:21.002Z,8.21
2019-02-21T17:12:46.960Z,8.21
2019-02-21T17:15:32.688Z,8.14
2019-02-21T17:18:03.720Z,8.09
2019-02-21T17:20:26.297Z,8.07
2019-02-21T17:22:52.184Z,7.98
2019-02-21T17:25:18.032Z,8.00
2019-02-21T17:28:25.544Z,7.98
2019-02-21T17:30:51.424Z,7.91
2019-02-21T17:33:17.282Z,7.91
2019-02-21T17:35:43.119Z,7.91
2019-02-21T17:38:08.976Z,7.87
2019-02-21T17:40:34.927Z,7.86
2019-02-21T17:43:00.830Z,7.79
2019-02-21T17:45:26.744Z,7.78
2019-02-21T17:47:52.584Z,7.76
2019-02-21T17:51:00.084Z,7.71
2019-02-21T17:53:45.828Z,7.50
2019-02-21T17:56:31.657Z,7.53
2019-02-21T17:58:57.656Z,7.53
2019-02-21T18:01:23.507Z,7.59
2019-02-21T18:03:49.446Z,7.58
2019-02-21T18:06:15.412Z,7.56
2019-02-21T18:08:41.241Z,7.59
2019-02-21T18:11:07.117Z,7.51
2019-02-21T18:16:26.647Z,7.55
2019-02-21T18:18:52.487Z,7.62
2019-02-21T18:21:18.370Z,7.39
2019-02-21T18:23:44.222Z,7.24
2019-02-21T18:26:51.742Z,7.45
2019-02-21T18:29:17.616Z,7.55
2019-02-21T18:31:43.439Z,7.53
2019-02-21T18:34:09.291Z,7.54
2019-02-21T18:36:35.127Z,7.50
2019-02-21T18:39:00.950Z,7.46
2019-02-21T18:41:26.848Z,7.27
2019-02-21T18:43:52.661Z,7.21
2019-02-21T18:46:18.477Z,6.81
2019-02-21T18:48:44.332Z,6.76
2019-02-21T18:51:10.158Z,6.65
2019-02-21T18:53:36.003Z,6.54
2019-02-21T18:56:01.837Z,6.46
2019-02-21T18:58:27.681Z,6.43
2019-02-21T19:00:53.551Z,6.53
2019-02-21T19:03:19.399Z,6.54
2019-02-21T19:05:45.228Z,6.58
2019-02-21T19:08:11.045Z,6.59
2019-02-21T19:10:37.001Z,6.62
2019-02-21T19:15:50.443Z,6.47
2019-02-21T19:18:16.270Z,6.49
2019-02-21T19:20:42.132Z,6.59
2019-02-21T19:23:08.058Z,6.66
2019-02-21T19:25:33.933Z,7.04
2019-02-21T19:28:00.122Z,7.17
2019-02-21T19:30:39.280Z,7.24
2019-02-21T19:33:18.484Z,7.07
2019-02-21T19:35:44.505Z,7.07
2019-02-21T19:38:10.998Z,7.17
2019-02-21T19:40:38.511Z,7.20
2019-02-21T19:43:04.391Z,7.21
2019-02-21T19:45:30.559Z,7.20
2019-02-21T19:47:56.647Z,7.16
2019-02-21T19:50:22.684Z,7.14
2019-02-21T19:52:48.874Z,7.14
2019-02-21T19:55:14.889Z,6.74
2019-02-21T19:57:40.851Z,6.77
2019-02-21T20:00:48.377Z,6.56
2019-02-21T20:03:14.393Z,6.60
2019-02-21T20:05:40.340Z,6.58
2019-02-21T20:08:08.942Z,6.56
2019-02-21T20:10:33.947Z,6.57
2019-02-21T20:15:33.750Z,6.68
2019-02-21T20:18:19.542Z,6.81
2019-02-21T20:20:45.435Z,6.81
2019-02-21T20:23:11.334Z,6.66
2019-02-21T20:25:37.207Z,6.83
2019-02-21T20:28:03.198Z,6.73
2019-02-21T20:33:16.628Z,6.59
2019-02-21T20:35:42.479Z,6.51
2019-02-21T20:38:08.577Z,6.48
2019-02-21T20:40:54.339Z,6.34
2019-02-21T20:43:20.229Z,6.34
2019-02-21T20:45:53.186Z,6.22
2019-02-21T20:48:13.845Z,6.12
2019-02-21T20:50:39.872Z,6.07
2019-02-21T20:53:25.713Z,6.06
2019-02-21T20:55:51.598Z,6.18
2019-02-21T20:58:17.624Z,6.18
2019-02-21T21:00:43.500Z,6.35
2019-02-21T21:03:09.388Z,6.39
2019-02-21T21:05:35.310Z,6.62
2019-02-21T21:08:01.305Z,6.87
2019-02-21T21:10:27.279Z,6.83
2019-02-21T21:12:53.127Z,6.80
2019-02-21T21:15:19.206Z,6.93
2019-02-21T21:17:45.228Z,7.00
2019-02-21T21:20:31.104Z,6.98
2019-02-21T21:22:57.479Z,7.05
2019-02-21T21:25:43.260Z,7.08
2019-02-21T21:28:09.554Z,7.08
2019-02-21T21:30:55.350Z,7.06
2019-02-21T21:33:41.112Z,7.01
2019-02-21T21:36:07.108Z,7.01
2019-02-21T21:38:32.978Z,6.99
2019-02-21T21:40:58.846Z,7.06
2019-02-21T21:43:24.816Z,7.10
2019-02-21T21:45:50.727Z,7.09
2019-02-21T21:48:16.669Z,7.06
2019-02-21T21:50:42.603Z,6.96
2019-02-21T21:53:08.701Z,6.95
2019-02-21T21:55:34.525Z,6.80
2019-02-21T21:58:00.400Z,6.77
2019-02-21T22:00:26.343Z,6.84
2019-02-21T22:02:52.311Z,6.73
2019-02-21T22:05:18.674Z,6.67
2019-02-21T22:08:04.545Z,6.49
2019-02-21T22:10:30.518Z,6.49
2019-02-21T22:12:56.410Z,6.26
2019-02-21T22:16:03.900Z,6.10
2019-02-21T22:18:29.826Z,5.96
2019-02-21T22:20:55.707Z,6.03
2019-02-21T22:23:21.657Z,6.01
2019-02-21T22:25:47.635Z,6.08
2019-02-21T22:28:13.535Z,6.21
2019-02-21T22:30:39.428Z,6.16
2019-02-21T22:33:05.312Z,6.14
2019-02-21T22:35:31.208Z,5.91
2019-02-21T22:37:57.066Z,5.83
2019-02-21T22:40:22.924Z,5.78
2019-02-21T22:42:48.867Z,5.89
2019-02-21T22:45:14.850Z,5.89
2019-02-21T22:47:40.739Z,6.02
2019-02-21T22:50:48.227Z,6.19
2019-02-21T22:53:14.091Z,6.11
2019-02-21T22:55:39.981Z,6.04
2019-02-21T22:58:05.857Z,5.89
2019-02-21T23:01:13.363Z,5.86
2019-02-21T23:04:20.897Z,5.81
2019-02-21T23:07:26.789Z,5.78
2019-02-21T23:09:52.667Z,5.78
2019-02-21T23:12:18.592Z,5.77
2019-02-21T23:14:44.541Z,5.80
2019-02-21T23:17:10.380Z,5.82
2019-02-21T23:19:36.256Z,5.74
2019-02-21T23:22:02.178Z,5.66
2019-02-21T23:24:28.089Z,5.59
2019-02-21T23:26:53.995Z,5.51
2019-02-21T23:29:19.985Z,5.50
2019-02-21T23:31:45.967Z,5.66
2019-02-21T23:36:45.370Z,5.79
2019-02-21T23:39:11.282Z,5.87
2019-02-21T23:41:37.166Z,5.93
2019-02-21T23:44:03.038Z,5.88
2019-02-21T23:46:28.957Z,5.90
2019-02-21T23:48:54.875Z,5.89
2019-02-21T23:51:20.927Z,5.85
2019-02-21T23:54:06.681Z,6.46
2019-02-21T23:56:32.528Z,6.46
2019-02-21T23:58:58.395Z,6.69
